createdAt,value
2019-05-30T00:03:38.985Z,99.90
2019-05-30T00:08:40.495Z,99.90
2019-05-30T00:13:41.973Z,99.90
2019-05-30T00:18:43.474Z,99.90
2019-05-30T00:23:45.056Z,99.90
2019-05-30T00:28:46.538Z,99.90
2019-05-30T00:33:48.050Z,99.90
2019-05-30T00:38:50.035Z,99.90
2019-05-30T00:43:51.611Z,99.90
2019-05-30T00:48:53.502Z,99.90
2019-05-30T00:53:56.405Z,99.90
2019-05-30T00:58:58.646Z,99.90
2019-05-30T01:04:00.814Z,99.90
2019-05-30T01:09:05.188Z,99.90
2019-05-30T01:14:07.511Z,99.90
2019-05-30T01:19:09.325Z,99.90
2019-05-30T01:24:10.910Z,99.90
2019-05-30T01:29:12.492Z,99.90
2019-05-30T01:34:14.215Z,99.90
2019-05-30T01:39:15.697Z,99.90
2019-05-30T01:44:17.335Z,99.90
2019-05-30T01:49:18.825Z,99.90
2019-05-30T01:54:20.507Z,99.90
2019-05-30T01:59:21.989Z,99.90
2019-05-30T02:04:23.472Z,99.90
2019-05-30T02:09:24.972Z,99.90
2019-05-30T02:14:26.460Z,99.90
2019-05-30T02:19:28.075Z,99.90
2019-05-30T02:24:29.554Z,99.90
2019-05-30T02:29:31.271Z,99.90
2019-05-30T02:34:32.764Z,99.90
2019-05-30T02:39:34.362Z,99.90
2019-05-30T02:44:35.879Z,99.90
2019-05-30T02:49:37.471Z,99.90
2019-05-30T02:54:39.033Z,99.90
2019-05-30T02:59:40.524Z,99.90
2019-05-30T03:04:42.015Z,99.90
2019-05-30T03:09:44.235Z,99.90
2019-05-30T03:14:46.214Z,99.90
2019-05-30T03:19:47.907Z,99.90
2019-05-30T03:24:49.496Z,99.90
2019-05-30T03:29:51.192Z,99.90
2019-05-30T03:34:52.691Z,99.90
2019-05-30T03:39:54.263Z,99.90
2019-05-30T03:44:56.260Z,99.90
2019-05-30T03:49:59.452Z,99.90
2019-05-30T03:55:02.119Z,99.90
2019-05-30T04:00:32.774Z,99.90
2019-05-30T04:05:40.071Z,99.90
2019-05-30T04:10:46.472Z,99.90
2019-05-30T04:15:47.999Z,99.90
2019-05-30T04:20:49.499Z,99.90
2019-05-30T04:25:51.006Z,99.90
2019-05-30T04:30:52.589Z,99.90
2019-05-30T04:35:54.078Z,99.90
2019-05-30T04:40:55.585Z,99.90
2019-05-30T04:45:57.062Z,99.90
2019-05-30T04:50:58.544Z,99.90
2019-05-30T04:56:00.114Z,99.90
2019-05-30T05:01:01.604Z,99.90
2019-05-30T05:06:03.099Z,99.90
2019-05-30T05:11:04.579Z,99.90
2019-05-30T05:16:21.784Z,99.90
2019-05-30T05:21:09.708Z,99.90
2019-05-30T05:26:11.281Z,99.90
2019-05-30T05:31:12.784Z,99.90
2019-05-30T05:36:16.878Z,99.90
2019-05-30T05:41:20.176Z,99.90
2019-05-30T05:46:22.543Z,99.90
2019-05-30T05:51:24.821Z,99.90
2019-05-30T05:56:26.747Z,99.90
2019-05-30T06:01:30.133Z,99.90
2019-05-30T06:06:32.052Z,99.90
2019-05-30T06:11:33.651Z,99.90
2019-05-30T06:16:35.071Z,99.90
2019-05-30T06:21:36.893Z,99.90
2019-05-30T06:26:38.309Z,99.90
2019-05-30T06:31:40.132Z,99.90
2019-05-30T06:36:41.629Z,99.90
2019-05-30T06:41:43.120Z,99.90
2019-05-30T06:46:44.596Z,99.90
2019-05-30T06:51:46.128Z,99.90
2019-05-30T06:56:47.675Z,99.90
2019-05-30T07:01:52.022Z,99.90
2019-05-30T07:06:53.446Z,99.90
2019-05-30T07:11:55.150Z,99.90
2019-05-30T07:16:56.674Z,99.90
2019-05-30T07:21:58.157Z,99.90
2019-05-30T07:26:59.744Z,99.90
2019-05-30T07:32:01.483Z,99.90
2019-05-30T07:37:03.073Z,99.90
2019-05-30T07:42:06.484Z,99.90
2019-05-30T07:47:08.415Z,99.90
2019-05-30T07:52:09.920Z,99.90
2019-05-30T07:57:11.579Z,99.90
2019-05-30T08:02:13.135Z,99.90
2019-05-30T08:07:14.793Z,99.90
2019-05-30T08:12:16.423Z,99.90
2019-05-30T08:17:20.488Z,99.90
2019-05-30T08:22:22.060Z,99.90
2019-05-30T08:27:23.541Z,99.90
2019-05-30T08:32:25.240Z,99.90
2019-05-30T08:37:26.842Z,99.90
2019-05-30T08:42:29.553Z,99.90
2019-05-30T08:47:31.850Z,99.00
2019-05-30T08:52:34.457Z,96.70
2019-05-30T08:57:36.704Z,98.60
2019-05-30T09:02:38.883Z,99.60
2019-05-30T09:07:40.505Z,99.60
2019-05-30T09:12:45.201Z,96.50
2019-05-30T09:17:46.796Z,95.60
2019-05-30T09:22:48.772Z,95.20
2019-05-30T09:27:50.561Z,94.80
2019-05-30T09:32:52.489Z,93.10
2019-05-30T09:37:54.279Z,92.50
2019-05-30T09:42:55.874Z,92.40
2019-05-30T09:47:57.469Z,93.50
2019-05-30T09:52:59.415Z,92.50
2019-05-30T09:58:01.566Z,91.10
2019-05-30T10:03:04.146Z,92.00
2019-05-30T10:08:05.998Z,90.90
2019-05-30T10:13:07.610Z,89.50
2019-05-30T10:18:09.221Z,88.50
2019-05-30T10:23:10.722Z,87.50
2019-05-30T10:28:12.220Z,86.20
2019-05-30T10:33:14.199Z,86.90
2019-05-30T10:38:15.790Z,83.70
2019-05-30T10:43:17.547Z,82.70
2019-05-30T10:48:20.966Z,82.40
2019-05-30T10:53:22.981Z,83.80
2019-05-30T10:58:24.578Z,82.20
2019-05-30T11:03:27.691Z,81.30
2019-05-30T11:08:31.773Z,81.90
2019-05-30T11:13:33.455Z,80.70
2019-05-30T11:18:35.053Z,78.20
2019-05-30T11:23:36.867Z,78.50
2019-05-30T11:28:38.359Z,79.50
2019-05-30T11:33:39.874Z,78.10
2019-05-30T11:38:42.199Z,77.10
2019-05-30T11:43:43.681Z,77.60
2019-05-30T11:48:45.999Z,75.40
2019-05-30T11:53:47.639Z,74.20
2019-05-30T11:58:49.876Z,74.40
2019-05-30T12:03:52.519Z,75.00
2019-05-30T12:08:54.758Z,72.50
2019-05-30T12:13:57.420Z,72.60
2019-05-30T12:18:59.707Z,70.90
2019-05-30T12:24:02.624Z,71.30
2019-05-30T12:29:04.756Z,69.00
2019-05-30T12:34:06.331Z,70.20
2019-05-30T12:39:08.300Z,68.40
2019-05-30T12:44:09.881Z,71.60
2019-05-30T12:49:11.476Z,67.80
2019-05-30T12:54:13.143Z,67.20
2019-05-30T12:59:14.625Z,68.70
2019-05-30T13:04:16.185Z,67.40
2019-05-30T13:09:17.868Z,65.40
2019-05-30T13:14:19.366Z,66.50
2019-05-30T13:19:21.265Z,65.40
2019-05-30T13:24:23.042Z,64.90
2019-05-30T13:29:24.626Z,64.30
2019-05-30T13:34:26.123Z,65.60
2019-05-30T13:39:27.628Z,64.70
2019-05-30T13:44:29.105Z,64.50
2019-05-30T13:49:30.610Z,65.00
2019-05-30T13:54:32.474Z,64.80
2019-05-30T13:59:33.954Z,64.10
2019-05-30T14:04:35.459Z,64.60
2019-05-30T14:09:37.096Z,64.20
2019-05-30T14:14:38.589Z,64.20
2019-05-30T14:19:40.187Z,65.20
2019-05-30T14:24:41.676Z,65.10
2019-05-30T14:29:43.172Z,64.40
2019-05-30T14:34:44.666Z,65.00
2019-05-30T14:39:46.243Z,64.90
2019-05-30T14:44:47.780Z,65.10
2019-05-30T14:49:49.384Z,64.50
2019-05-30T14:54:50.937Z,66.90
2019-05-30T14:59:52.433Z,65.40
2019-05-30T15:04:53.933Z,65.70
2019-05-30T15:09:55.501Z,66.00
2019-05-30T15:14:56.984Z,66.10
2019-05-30T15:19:58.470Z,66.20
2019-05-30T15:24:59.970Z,66.90
2019-05-30T15:30:04.272Z,67.80
2019-05-30T15:35:06.894Z,68.00
2019-05-30T15:40:10.943Z,69.00
2019-05-30T15:45:13.989Z,67.30
2019-05-30T15:50:18.761Z,68.10
2019-05-30T15:55:23.201Z,67.80
2019-05-30T16:00:24.878Z,69.20
2019-05-30T16:05:26.466Z,68.50
2019-05-30T16:10:28.425Z,68.80
2019-05-30T16:15:29.937Z,68.90
2019-05-30T16:20:31.435Z,67.50
2019-05-30T16:25:32.955Z,69.30
2019-05-30T16:30:34.556Z,69.50
2019-05-30T16:35:36.130Z,69.70
2019-05-30T16:40:37.624Z,71.80
2019-05-30T16:45:39.212Z,71.80
2019-05-30T16:50:47.845Z,73.10
2019-05-30T16:55:49.825Z,73.00
2019-05-30T17:00:51.888Z,73.60
2019-05-30T17:05:53.969Z,74.30
2019-05-30T17:10:55.743Z,75.60
2019-05-30T17:15:57.156Z,75.70
2019-05-30T17:20:58.658Z,76.10
2019-05-30T17:26:00.301Z,77.80
2019-05-30T17:31:03.207Z,79.00
2019-05-30T17:36:04.884Z,79.00
2019-05-30T17:41:06.411Z,79.50
2019-05-30T17:46:08.030Z,80.40
2019-05-30T17:51:09.732Z,80.70
2019-05-30T17:56:11.539Z,81.10
2019-05-30T18:01:13.130Z,82.30
2019-05-30T18:06:14.623Z,82.80
2019-05-30T18:11:16.214Z,83.30
2019-05-30T18:16:18.099Z,84.00
2019-05-30T18:21:19.589Z,89.70
2019-05-30T18:26:21.533Z,92.40
2019-05-30T18:31:23.885Z,93.50
2019-05-30T18:36:26.284Z,94.50
2019-05-30T18:41:28.793Z,95.40
2019-05-30T18:46:31.242Z,96.60
2019-05-30T18:51:33.056Z,97.20
2019-05-30T18:56:34.710Z,97.90
2019-05-30T19:01:37.748Z,99.00
2019-05-30T19:06:39.568Z,99.90
2019-05-30T19:11:41.243Z,99.90
2019-05-30T19:16:43.073Z,99.90
2019-05-30T19:21:49.281Z,99.90
2019-05-30T19:26:51.346Z,99.90
2019-05-30T19:31:52.918Z,99.90
2019-05-30T19:36:54.681Z,99.90
2019-05-30T19:41:57.625Z,99.90
2019-05-30T19:46:59.394Z,99.90
2019-05-30T19:52:01.014Z,99.90
2019-05-30T19:57:02.869Z,99.90
2019-05-30T20:02:04.660Z,99.90
2019-05-30T20:07:06.365Z,99.90
2019-05-30T20:12:09.166Z,99.90
2019-05-30T20:17:10.900Z,99.90
2019-05-30T20:22:12.381Z,99.90
2019-05-30T20:27:14.275Z,99.90
2019-05-30T20:32:15.863Z,99.90
2019-05-30T20:37:17.348Z,99.90
2019-05-30T20:42:19.890Z,99.90
2019-05-30T20:47:21.629Z,99.90
2019-05-30T20:52:23.325Z,99.90
2019-05-30T20:57:25.096Z,99.90
2019-05-30T21:02:29.302Z,99.90
2019-05-30T21:07:32.579Z,99.90
2019-05-30T21:12:39.361Z,99.90
2019-05-30T21:17:41.699Z,99.90
2019-05-30T21:22:44.695Z,99.90
2019-05-30T21:27:47.343Z,99.90
2019-05-30T21:32:49.627Z,99.90
2019-05-30T21:37:51.326Z,99.90
2019-05-30T21:43:04.664Z,99.90
2019-05-30T21:47:56.367Z,99.90
2019-05-30T21:52:58.729Z,99.90
2019-05-30T21:58:00.280Z,99.90
2019-05-30T22:03:03.331Z,99.90
2019-05-30T22:08:06.372Z,99.90
2019-05-30T22:13:10.421Z,99.90
2019-05-30T22:18:11.982Z,99.90
2019-05-30T22:23:13.600Z,99.90
2019-05-30T22:28:15.089Z,99.90
2019-05-30T22:33:16.692Z,99.90
2019-05-30T22:38:18.524Z,99.90
2019-05-30T22:43:25.378Z,99.90
2019-05-30T22:48:23.507Z,99.90
2019-05-30T22:53:25.081Z,99.90
2019-05-30T22:58:26.653Z,99.90
2019-05-30T23:03:28.255Z,99.90
2019-05-30T23:08:29.744Z,99.90
2019-05-30T23:13:40.181Z,99.90
2019-05-30T23:18:34.721Z,99.90
2019-05-30T23:23:36.215Z,99.90
2019-05-30T23:28:38.001Z,99.90
2019-05-30T23:33:39.531Z,99.90
2019-05-30T23:38:41.005Z,99.90
2019-05-30T23:43:55.390Z,99.90
2019-05-30T23:48:46.003Z,99.90
2019-05-30T23:53:47.489Z,99.90
2019-05-30T23:58:50.414Z,99.90
